sensor_id;sensor_type;location;lat;lon;timestamp;pressure;altitude;pressure_sealevel;temperature;humidity
14089;BME280;7120;52.890;6.040;2023-04-25T00:01:03;100915.75;;;6.27;100.00
14089;BME280;7120;52.890;6.040;2023-04-25T00:03:29;100913.56;;;6.35;100.00
14089;BME280;7120;52.890;6.040;2023-04-25T00:05:55;100919.00;;;6.24;100.00
14089;BME280;7120;52.890;6.040;2023-04-25T00:08:22;100924.97;;;6.16;100.00
14089;BME280;7120;52.890;6.040;2023-04-25T00:10:47;100931.47;;;6.15;100.00
14089;BME280;7120;52.890;6.040;2023-04-25T00:13:14;100926.06;;;6.20;100.00
14089;BME280;7120;52.890;6.040;2023-04-25T00:15:39;100925.78;;;6.32;100.00
14089;BME280;7120;52.890;6.040;2023-04-25T00:18:07;100921.16;;;6.32;100.00
14089;BME280;7120;52.890;6.040;2023-04-25T00:20:32;100918.16;;;6.39;100.00
14089;BME280;7120;52.890;6.040;2023-04-25T00:22:57;100921.97;;;6.33;100.00
14089;BME280;7120;52.890;6.040;2023-04-25T00:25:23;100921.44;;;6.36;100.00
14089;BME280;7120;52.890;6.040;2023-04-25T00:27:48;100926.31;;;6.39;100.00
14089;BME280;7120;52.890;6.040;2023-04-25T00:30:14;100927.69;;;6.31;100.00
14089;BME280;7120;52.890;6.040;2023-04-25T00:32:39;100927.69;;;6.42;100.00
14089;BME280;7120;52.890;6.040;2023-04-25T00:35:05;100930.41;;;6.57;100.00
14089;BME280;7120;52.890;6.040;2023-04-25T00:37:31;100913.56;;;6.35;100.00
14089;BME280;7120;52.890;6.040;2023-04-25T00:39:58;100932.56;;;6.50;100.00
14089;BME280;7120;52.890;6.040;2023-04-25T00:42:24;100929.03;;;6.44;100.00
14089;BME280;7120;52.890;6.040;2023-04-25T00:44:52;100933.38;;;6.60;100.00
14089;BME280;7120;52.890;6.040;2023-04-25T00:47:18;100938.81;;;6.71;100.00
14089;BME280;7120;52.890;6.040;2023-04-25T00:49:43;100931.47;;;6.71;100.00
14089;BME280;7120;52.890;6.040;2023-04-25T00:52:09;100945.56;;;6.83;100.00
14089;BME280;7120;52.890;6.040;2023-04-25T00:54:35;100940.41;;;6.87;100.00
14089;BME280;7120;52.890;6.040;2023-04-25T00:57:00;100952.06;;;7.08;100.00
14089;BME280;7120;52.890;6.040;2023-04-25T00:59:27;100944.47;;;7.00;100.00
14089;BME280;7120;52.890;6.040;2023-04-25T01:01:53;100945.53;;;7.04;100.00
14089;BME280;7120;52.890;6.040;2023-04-25T01:04:18;100948.25;;;7.09;100.00
14089;BME280;7120;52.890;6.040;2023-04-25T01:06:43;100950.44;;;7.07;100.00
14089;BME280;7120;52.890;6.040;2023-04-25T01:09:10;100953.16;;;6.97;100.00
14089;BME280;7120;52.890;6.040;2023-04-25T01:11:35;100955.34;;;7.05;100.00
14089;BME280;7120;52.890;6.040;2023-04-25T01:14:01;100953.44;;;7.00;100.00
14089;BME280;7120;52.890;6.040;2023-04-25T01:16:27;100952.53;;;7.25;100.00
14089;BME280;7120;52.890;6.040;2023-04-25T01:18:53;100958.53;;;7.27;100.00
14089;BME280;7120;52.890;6.040;2023-04-25T01:21:19;100953.69;;;7.09;100.00
14089;BME280;7120;52.890;6.040;2023-04-25T01:23:44;100964.50;;;7.29;100.00
14089;BME280;7120;52.890;6.040;2023-04-25T01:26:11;100967.28;;;7.19;100.00
14089;BME280;7120;52.890;6.040;2023-04-25T01:28:39;100961.25;;;7.27;100.00
14089;BME280;7120;52.890;6.040;2023-04-25T01:31:06;100959.94;;;7.04;100.00
14089;BME280;7120;52.890;6.040;2023-04-25T01:33:32;100963.75;;;7.03;100.00
14089;BME280;7120;52.890;6.040;2023-04-25T01:35:57;100962.38;;;7.11;100.00
14089;BME280;7120;52.890;6.040;2023-04-25T01:38:23;100953.69;;;7.09;100.00
14089;BME280;7120;52.890;6.040;2023-04-25T01:40:49;100960.25;;;6.98;100.00
14089;BME280;7120;52.890;6.040;2023-04-25T01:43:16;100961.88;;;6.99;100.00
14089;BME280;7120;52.890;6.040;2023-04-25T01:45:42;100965.13;;;6.96;100.00
14089;BME280;7120;52.890;6.040;2023-04-25T01:48:13;100961.88;;;6.88;100.00
14089;BME280;7120;52.890;6.040;2023-04-25T01:50:39;100969.75;;;6.90;100.00
14089;BME280;7120;52.890;6.040;2023-04-25T01:53:05;100980.09;;;6.98;100.00
14089;BME280;7120;52.890;6.040;2023-04-25T01:55:31;100974.38;;;6.95;99.52
14089;BME280;7120;52.890;6.040;2023-04-25T01:57:56;100973.03;;;6.82;100.00
14089;BME280;7120;52.890;6.040;2023-04-25T02:00:22;100977.13;;;6.74;100.00
14089;BME280;7120;52.890;6.040;2023-04-25T02:02:47;100982.28;;;6.71;100.00
14089;BME280;7120;52.890;6.040;2023-04-25T02:05:13;100983.09;;;6.76;100.00
14089;BME280;7120;52.890;6.040;2023-04-25T02:07:39;100976.03;;;6.70;100.00
14089;BME280;7120;52.890;6.040;2023-04-25T02:10:04;100978.75;;;6.65;100.00
14089;BME280;7120;52.890;6.040;2023-04-25T02:12:30;100985.28;;;6.59;100.00
14089;BME280;7120;52.890;6.040;2023-04-25T02:14:56;100986.09;;;6.65;100.00
14089;BME280;7120;52.890;6.040;2023-04-25T02:17:21;100983.94;;;6.56;100.00
14089;BME280;7120;52.890;6.040;2023-04-25T02:19:47;100998.06;;;6.58;100.00
14089;BME280;7120;52.890;6.040;2023-04-25T02:22:13;100997.50;;;6.51;100.00
14089;BME280;7120;52.890;6.040;2023-04-25T02:24:38;100990.72;;;6.59;100.00
14089;BME280;7120;52.890;6.040;2023-04-25T02:27:04;100990.16;;;6.62;100.00
14089;BME280;7120;52.890;6.040;2023-04-25T02:29:29;101001.03;;;6.62;100.00
14089;BME280;7120;52.890;6.040;2023-04-25T02:31:55;100992.63;;;6.64;100.00
14089;BME280;7120;52.890;6.040;2023-04-25T02:34:21;101000.22;;;6.46;100.00
14089;BME280;7120;52.890;6.040;2023-04-25T02:36:48;100995.88;;;6.45;100.00
14089;BME280;7120;52.890;6.040;2023-04-25T02:39:16;100999.66;;;6.34;100.00
14089;BME280;7120;52.890;6.040;2023-04-25T02:41:41;101000.19;;;6.31;100.00
14089;BME280;7120;52.890;6.040;2023-04-25T02:44:07;101015.66;;;6.25;100.00
14089;BME280;7120;52.890;6.040;2023-04-25T02:46:32;101003.94;;;6.04;100.00
14089;BME280;7120;52.890;6.040;2023-04-25T02:48:57;101013.22;;;6.14;100.00
14089;BME280;7120;52.890;6.040;2023-04-25T02:51:23;101009.94;;;6.07;100.00
14089;BME280;7120;52.890;6.040;2023-04-25T02:53:48;101004.50;;;6.01;100.00
14089;BME280;7120;52.890;6.040;2023-04-25T02:56:13;101005.88;;;6.09;100.00
14089;BME280;7120;52.890;6.040;2023-04-25T02:58:39;101000.97;;;6.11;100.00
14089;BME280;7120;52.890;6.040;2023-04-25T03:01:04;100991.19;;;6.10;100.00
14089;BME280;7120;52.890;6.040;2023-04-25T03:03:30;100997.97;;;6.13;100.00
14089;BME280;7120;52.890;6.040;2023-04-25T03:05:55;100993.09;;;6.20;97.17
14089;BME280;7120;52.890;6.040;2023-04-25T03:08:20;101001.00;;;6.16;97.37
14089;BME280;7120;52.890;6.040;2023-04-25T03:10:46;101010.50;;;6.19;96.50
14089;BME280;7120;52.890;6.040;2023-04-25T03:13:11;101007.22;;;6.12;96.41
14089;BME280;7120;52.890;6.040;2023-04-25T03:15:38;101009.41;;;6.20;95.42
14089;BME280;7120;52.890;6.040;2023-04-25T03:18:03;101024.88;;;6.19;96.84
14089;BME280;7120;52.890;6.040;2023-04-25T03:20:29;101013.22;;;6.34;94.95
14089;BME280;7120;52.890;6.040;2023-04-25T03:22:56;101025.44;;;6.26;94.48
14089;BME280;7120;52.890;6.040;2023-04-25T03:25:21;101017.31;;;6.37;94.05
14089;BME280;7120;52.890;6.040;2023-04-25T03:27:47;101021.38;;;6.29;93.81
14089;BME280;7120;52.890;6.040;2023-04-25T03:30:12;101027.09;;;6.32;95.97
14089;BME280;7120;52.890;6.040;2023-04-25T03:32:37;101024.06;;;6.19;95.69
14089;BME280;7120;52.890;6.040;2023-04-25T03:35:03;101028.69;;;6.23;94.97
14089;BME280;7120;52.890;6.040;2023-04-25T03:37:29;101027.34;;;6.21;96.21
14089;BME280;7120;52.890;6.040;2023-04-25T03:39:54;101045.53;;;6.15;98.67
14089;BME280;7120;52.890;6.040;2023-04-25T03:42:20;101047.97;;;6.17;99.00
14089;BME280;7120;52.890;6.040;2023-04-25T03:44:48;101048.97;;;5.95;98.03
14089;BME280;7120;52.890;6.040;2023-04-25T03:47:13;101043.47;;;5.80;100.00
14089;BME280;7120;52.890;6.040;2023-04-25T03:49:38;101033.47;;;5.86;100.00
14089;BME280;7120;52.890;6.040;2023-04-25T03:52:04;101039.44;;;5.88;100.00
14089;BME280;7120;52.890;6.040;2023-04-25T03:54:29;101047.38;;;6.04;100.00
14089;BME280;7120;52.890;6.040;2023-04-25T03:56:54;101048.75;;;6.12;100.00
14089;BME280;7120;52.890;6.040;2023-04-25T03:59:20;101044.97;;;6.18;100.00
14089;BME280;7120;52.890;6.040;2023-04-25T04:01:45;101055.03;;;6.23;100.00
14089;BME280;7120;52.890;6.040;2023-04-25T04:04:10;101058.81;;;6.07;100.00
14089;BME280;7120;52.890;6.040;2023-04-25T04:06:36;101048.75;;;6.07;99.64
14089;BME280;7120;52.890;6.040;2023-04-25T04:09:02;101056.38;;;6.15;100.00
14089;BME280;7120;52.890;6.040;2023-04-25T04:11:28;101047.41;;;6.10;100.00
14089;BME280;7120;52.890;6.040;2023-04-25T04:13:53;101055.56;;;6.20;100.00
14089;BME280;7120;52.890;6.040;2023-04-25T04:16:19;101040.13;;;6.20;96.12
14089;BME280;7120;52.890;6.040;2023-04-25T04:18:45;101048.81;;;6.27;96.39
14089;BME280;7120;52.890;6.040;2023-04-25T04:21:11;101051.00;;;6.41;94.88
14089;BME280;7120;52.890;6.040;2023-04-25T04:23:36;101050.19;;;6.30;95.70
14089;BME280;7120;52.890;6.040;2023-04-25T04:26:02;101056.16;;;6.32;97.08
14089;BME280;7120;52.890;6.040;2023-04-25T04:28:28;101057.28;;;6.51;97.13
14089;BME280;7120;52.890;6.040;2023-04-25T04:30:53;101059.44;;;6.54;96.48
14089;BME280;7120;52.890;6.040;2023-04-25T04:33:18;101068.69;;;6.58;100.00
14089;BME280;7120;52.890;6.040;2023-04-25T04:35:45;101067.88;;;6.68;99.57
14089;BME280;7120;52.890;6.040;2023-04-25T04:38:12;101063.53;;;6.62;98.10
14089;BME280;7120;52.890;6.040;2023-04-25T04:40:40;101064.91;;;6.65;96.95
14089;BME280;7120;52.890;6.040;2023-04-25T04:43:06;101071.97;;;6.71;98.56
14089;BME280;7120;52.890;6.040;2023-04-25T04:45:34;101073.88;;;6.65;96.84
14089;BME280;7120;52.890;6.040;2023-04-25T04:47:59;101076.06;;;6.63;100.00
14089;BME280;7120;52.890;6.040;2023-04-25T04:50:24;101081.50;;;6.78;99.12
14089;BME280;7120;52.890;6.040;2023-04-25T04:52:51;101086.91;;;6.58;100.00
14089;BME280;7120;52.890;6.040;2023-04-25T04:55:17;101094.22;;;6.47;100.00
14089;BME280;7120;52.890;6.040;2023-04-25T04:57:42;101101.59;;;6.57;100.00
14089;BME280;7120;52.890;6.040;2023-04-25T05:00:08;101098.03;;;6.51;100.00
14089;BME280;7120;52.890;6.040;2023-04-25T05:02:37;101116.81;;;6.63;100.00
14089;BME280;7120;52.890;6.040;2023-04-25T05:05:04;101123.84;;;6.49;100.00
14089;BME280;7120;52.890;6.040;2023-04-25T05:07:30;101120.28;;;6.43;99.50
14089;BME280;7120;52.890;6.040;2023-04-25T05:09:55;101126.44;;;6.18;98.99
14089;BME280;7120;52.890;6.040;2023-04-25T05:12:20;101133.44;;;6.04;100.00
14089;BME280;7120;52.890;6.040;2023-04-25T05:14:46;101137.66;;;5.85;100.00
14089;BME280;7120;52.890;6.040;2023-04-25T05:17:11;101143.56;;;5.71;100.00
14089;BME280;7120;52.890;6.040;2023-04-25T05:19:36;101143.34;;;5.78;100.00
14089;BME280;7120;52.890;6.040;2023-04-25T05:22:02;101135.53;;;5.92;100.00
14089;BME280;7120;52.890;6.040;2023-04-25T05:24:27;101132.16;;;6.22;100.00
14089;BME280;7120;52.890;6.040;2023-04-25T05:26:53;101132.75;;;6.29;100.00
14089;BME280;7120;52.890;6.040;2023-04-25T05:29:18;101139.84;;;6.45;97.40
14089;BME280;7120;52.890;6.040;2023-04-25T05:31:44;101141.22;;;6.53;94.28
14089;BME280;7120;52.890;6.040;2023-04-25T05:34:09;101130.13;;;6.65;92.91
14089;BME280;7120;52.890;6.040;2023-04-25T05:36:35;101138.03;;;6.71;92.75
14089;BME280;7120;52.890;6.040;2023-04-25T05:39:00;101146.19;;;6.81;93.11
14089;BME280;7120;52.890;6.040;2023-04-25T05:41:26;101145.41;;;6.91;93.60
14089;BME280;7120;52.890;6.040;2023-04-25T05:43:51;101140.50;;;6.98;90.68
14089;BME280;7120;52.890;6.040;2023-04-25T05:46:16;101138.34;;;7.05;91.30
14089;BME280;7120;52.890;6.040;2023-04-25T05:48:44;101136.97;;;7.28;96.06
14089;BME280;7120;52.890;6.040;2023-04-25T05:51:10;101139.66;;;7.64;88.81
14089;BME280;7120;52.890;6.040;2023-04-25T05:53:35;101154.03;;;7.90;92.41
14089;BME280;7120;52.890;6.040;2023-04-25T05:56:01;101149.41;;;7.90;88.79
14089;BME280;7120;52.890;6.040;2023-04-25T05:58:26;101150.81;;;7.72;86.97
14089;BME280;7120;52.890;6.040;2023-04-25T06:00:52;101153.81;;;7.66;90.21
14089;BME280;7120;52.890;6.040;2023-04-25T06:03:17;101156.78;;;7.75;90.58
14089;BME280;7120;52.890;6.040;2023-04-25T06:05:42;101158.69;;;7.79;89.49
14089;BME280;7120;52.890;6.040;2023-04-25T06:08:09;101164.34;;;8.03;92.98
14089;BME280;7120;52.890;6.040;2023-04-25T06:10:35;101161.25;;;8.30;91.64
14089;BME280;7120;52.890;6.040;2023-04-25T06:13:01;101158.25;;;8.42;90.78
14089;BME280;7120;52.890;6.040;2023-04-25T06:15:26;101171.28;;;8.45;89.73
14089;BME280;7120;52.890;6.040;2023-04-25T06:17:51;101166.41;;;8.42;90.35
14089;BME280;7120;52.890;6.040;2023-04-25T06:20:17;101171.25;;;8.55;88.99
14089;BME280;7120;52.890;6.040;2023-04-25T06:22:42;101173.91;;;8.65;89.17
14089;BME280;7120;52.890;6.040;2023-04-25T06:25:07;101189.31;;;8.46;89.01
14089;BME280;7120;52.890;6.040;2023-04-25T06:27:33;101178.16;;;8.37;89.92
14089;BME280;7120;52.890;6.040;2023-04-25T06:29:59;101179.47;;;8.50;90.08
14089;BME280;7120;52.890;6.040;2023-04-25T06:32:24;101187.63;;;8.50;89.74
14089;BME280;7120;52.890;6.040;2023-04-25T06:34:51;101181.63;;;8.53;87.30
14089;BME280;7120;52.890;6.040;2023-04-25T06:37:16;101191.13;;;8.61;86.44
14089;BME280;7120;52.890;6.040;2023-04-25T06:39:42;101190.28;;;8.65;85.31
14089;BME280;7120;52.890;6.040;2023-04-25T06:42:07;101191.16;;;8.50;86.36
14089;BME280;7120;52.890;6.040;2023-04-25T06:44:33;101196.84;;;8.59;85.57
14089;BME280;7120;52.890;6.040;2023-04-25T06:46:58;101192.88;;;8.36;84.74
14089;BME280;7120;52.890;6.040;2023-04-25T06:49:23;101196.53;;;8.71;85.29
14089;BME280;7120;52.890;6.040;2023-04-25T06:51:49;101201.50;;;8.59;84.40
14089;BME280;7120;52.890;6.040;2023-04-25T06:54:14;101206.34;;;8.67;87.33
14089;BME280;7120;52.890;6.040;2023-04-25T06:56:40;101213.47;;;8.63;81.84
14089;BME280;7120;52.890;6.040;2023-04-25T06:59:05;101207.03;;;8.38;83.53
14089;BME280;7120;52.890;6.040;2023-04-25T07:01:31;101205.47;;;8.02;83.77
14089;BME280;7120;52.890;6.040;2023-04-25T07:03:56;101205.75;;;8.05;87.08
14089;BME280;7120;52.890;6.040;2023-04-25T07:06:21;101216.06;;;8.13;84.36
14089;BME280;7120;52.890;6.040;2023-04-25T07:08:47;101211.72;;;8.12;82.73
14089;BME280;7120;52.890;6.040;2023-04-25T07:11:12;101210.88;;;8.17;81.32
14089;BME280;7120;52.890;6.040;2023-04-25T07:13:38;101201.88;;;8.21;79.57
14089;BME280;7120;52.890;6.040;2023-04-25T07:16:03;101214.16;;;8.19;82.46
14089;BME280;7120;52.890;6.040;2023-04-25T07:18:29;101208.91;;;8.53;79.92
14089;BME280;7120;52.890;6.040;2023-04-25T07:20:54;101228.44;;;8.65;79.70
14089;BME280;7120;52.890;6.040;2023-04-25T07:23:19;101232.03;;;8.56;75.27
14089;BME280;7120;52.890;6.040;2023-04-25T07:25:45;101225.28;;;8.38;79.05
14089;BME280;7120;52.890;6.040;2023-04-25T07:28:10;101230.84;;;8.82;81.49
14089;BME280;7120;52.890;6.040;2023-04-25T07:30:36;101238.09;;;9.41;77.01
14089;BME280;7120;52.890;6.040;2023-04-25T07:33:01;101236.31;;;9.60;73.83
14089;BME280;7120;52.890;6.040;2023-04-25T07:35:27;101255.63;;;9.30;73.37
14089;BME280;7120;52.890;6.040;2023-04-25T07:37:52;101279.50;;;7.17;91.31
14089;BME280;7120;52.890;6.040;2023-04-25T07:40:18;101299.25;;;5.65;100.00
14089;BME280;7120;52.890;6.040;2023-04-25T07:42:43;101307.91;;;5.35;100.00
14089;BME280;7120;52.890;6.040;2023-04-25T07:45:09;101302.53;;;5.40;100.00
14089;BME280;7120;52.890;6.040;2023-04-25T07:47:35;101274.53;;;5.62;100.00
14089;BME280;7120;52.890;6.040;2023-04-25T07:50:00;101268.47;;;5.82;100.00
14089;BME280;7120;52.890;6.040;2023-04-25T07:52:26;101262.25;;;6.23;100.00
14089;BME280;7120;52.890;6.040;2023-04-25T07:54:51;101276.44;;;6.93;100.00
14089;BME280;7120;52.890;6.040;2023-04-25T07:57:17;101278.47;;;7.59;100.00
14089;BME280;7120;52.890;6.040;2023-04-25T07:59:43;101280.38;;;7.94;100.00
14089;BME280;7120;52.890;6.040;2023-04-25T08:02:08;101281.19;;;8.05;93.25
14089;BME280;7120;52.890;6.040;2023-04-25T08:04:34;101286.34;;;8.16;92.81
14089;BME280;7120;52.890;6.040;2023-04-25T08:06:59;101283.91;;;7.99;90.73
14089;BME280;7120;52.890;6.040;2023-04-25T08:09:25;101292.63;;;8.07;89.83
14089;BME280;7120;52.890;6.040;2023-04-25T08:11:50;101298.06;;;8.32;86.34
14089;BME280;7120;52.890;6.040;2023-04-25T08:14:16;101289.53;;;9.24;85.41
14089;BME280;7120;52.890;6.040;2023-04-25T08:16:41;101292.00;;;9.94;80.78
14089;BME280;7120;52.890;6.040;2023-04-25T08:19:07;101289.69;;;10.40;73.30
14089;BME280;7120;52.890;6.040;2023-04-25T08:21:32;101292.34;;;10.50;69.22
14089;BME280;7120;52.890;6.040;2023-04-25T08:23:58;101297.00;;;10.73;70.21
14089;BME280;7120;52.890;6.040;2023-04-25T08:26:24;101294.91;;;11.46;72.16
14089;BME280;7120;52.890;6.040;2023-04-25T08:28:50;101300.63;;;12.61;68.78
14089;BME280;7120;52.890;6.040;2023-04-25T08:31:15;101302.16;;;12.81;66.75
14089;BME280;7120;52.890;6.040;2023-04-25T08:33:40;101296.91;;;11.78;60.78
14089;BME280;7120;52.890;6.040;2023-04-25T08:36:06;101302.69;;;11.39;67.25
14089;BME280;7120;52.890;6.040;2023-04-25T08:38:31;101318.72;;;10.36;64.32
14089;BME280;7120;52.890;6.040;2023-04-25T08:40:59;101316.16;;;10.15;66.67
14089;BME280;7120;52.890;6.040;2023-04-25T08:43:25;101318.78;;;9.97;66.37
14089;BME280;7120;52.890;6.040;2023-04-25T08:45:53;101313.94;;;10.52;69.92
14089;BME280;7120;52.890;6.040;2023-04-25T08:48:19;101321.13;;;11.33;63.59
14089;BME280;7120;52.890;6.040;2023-04-25T08:50:49;101327.34;;;11.58;61.45
14089;BME280;7120;52.890;6.040;2023-04-25T08:53:16;101324.25;;;11.03;67.26
14089;BME280;7120;52.890;6.040;2023-04-25T08:55:45;101320.00;;;11.91;65.05
14089;BME280;7120;52.890;6.040;2023-04-25T08:58:12;101325.47;;;12.70;60.05
14089;BME280;7120;52.890;6.040;2023-04-25T09:00:38;101332.03;;;13.10;55.40
14089;BME280;7120;52.890;6.040;2023-04-25T09:03:04;101327.09;;;12.84;58.51
14089;BME280;7120;52.890;6.040;2023-04-25T09:05:33;101328.38;;;13.64;57.68
14089;BME280;7120;52.890;6.040;2023-04-25T09:08:00;101332.84;;;13.38;55.52
14089;BME280;7120;52.890;6.040;2023-04-25T09:10:26;101335.06;;;14.39;58.62
14089;BME280;7120;52.890;6.040;2023-04-25T09:13:11;101343.16;;;14.67;52.39
14089;BME280;7120;52.890;6.040;2023-04-25T09:15:54;101354.91;;;13.83;55.67
14089;BME280;7120;52.890;6.040;2023-04-25T09:18:23;101347.81;;;14.35;50.91
14089;BME280;7120;52.890;6.040;2023-04-25T09:20:51;101348.72;;;13.41;52.71
14089;BME280;7120;52.890;6.040;2023-04-25T09:23:18;101350.97;;;12.70;57.12
14089;BME280;7120;52.890;6.040;2023-04-25T09:25:47;101359.41;;;11.57;58.66
14089;BME280;7120;52.890;6.040;2023-04-25T09:28:12;101361.16;;;11.05;61.32
14089;BME280;7120;52.890;6.040;2023-04-25T09:30:38;101353.38;;;12.12;57.70
14089;BME280;7120;52.890;6.040;2023-04-25T09:33:08;101356.69;;;13.65;59.33
14089;BME280;7120;52.890;6.040;2023-04-25T09:35:38;101357.06;;;12.95;57.88
14089;BME280;7120;52.890;6.040;2023-04-25T09:38:12;101373.25;;;12.36;54.99
14089;BME280;7120;52.890;6.040;2023-04-25T09:40:41;101371.44;;;10.94;56.20
14089;BME280;7120;52.890;6.040;2023-04-25T09:45:42;101388.81;;;8.53;83.12
14089;BME280;7120;52.890;6.040;2023-04-25T09:48:11;101400.00;;;8.46;85.90
14089;BME280;7120;52.890;6.040;2023-04-25T09:50:38;101402.16;;;8.44;86.62
14089;BME280;7120;52.890;6.040;2023-04-25T09:53:04;101410.31;;;8.34;87.98
14089;BME280;7120;52.890;6.040;2023-04-25T09:55:31;101422.06;;;8.55;89.26
14089;BME280;7120;52.890;6.040;2023-04-25T09:58:03;101426.91;;;8.84;87.41
14089;BME280;7120;52.890;6.040;2023-04-25T10:00:30;101433.09;;;9.15;86.93
14089;BME280;7120;52.890;6.040;2023-04-25T10:02:57;101436.41;;;9.12;85.28
14089;BME280;7120;52.890;6.040;2023-04-25T10:05:22;101438.06;;;9.02;85.69
14089;BME280;7120;52.890;6.040;2023-04-25T10:07:50;101438.66;;;8.89;85.70
14089;BME280;7120;52.890;6.040;2023-04-25T10:10:17;101446.84;;;8.64;91.51
14089;BME280;7120;52.890;6.040;2023-04-25T10:12:44;101445.19;;;8.88;91.04
14089;BME280;7120;52.890;6.040;2023-04-25T10:15:10;101437.16;;;9.22;89.59
14089;BME280;7120;52.890;6.040;2023-04-25T10:17:36;101433.94;;;9.80;84.57
14089;BME280;7120;52.890;6.040;2023-04-25T10:20:06;101437.28;;;10.06;83.38
14089;BME280;7120;52.890;6.040;2023-04-25T10:22:42;101435.44;;;10.40;78.84
14089;BME280;7120;52.890;6.040;2023-04-25T10:25:09;101448.75;;;10.81;77.74
14089;BME280;7120;52.890;6.040;2023-04-25T10:27:35;101438.66;;;11.48;70.44
14089;BME280;7120;52.890;6.040;2023-04-25T10:30:07;101440.97;;;13.01;71.15
14089;BME280;7120;52.890;6.040;2023-04-25T10:32:35;101454.31;;;14.35;63.54
14089;BME280;7120;52.890;6.040;2023-04-25T10:35:18;101443.16;;;14.53;60.30
14089;BME280;7120;52.890;6.040;2023-04-25T10:40:30;101437.50;;;13.09;59.66
14089;BME280;7120;52.890;6.040;2023-04-25T10:42:55;101445.97;;;12.99;59.12
14089;BME280;7120;52.890;6.040;2023-04-25T10:45:22;101444.66;;;14.01;58.58
14089;BME280;7120;52.890;6.040;2023-04-25T10:47:47;101442.09;;;13.13;55.68
14089;BME280;7120;52.890;6.040;2023-04-25T10:50:16;101447.09;;;12.32;56.66
14089;BME280;7120;52.890;6.040;2023-04-25T10:52:41;101439.78;;;11.90;57.89
14089;BME280;7120;52.890;6.040;2023-04-25T10:55:07;101435.19;;;12.23;60.32
14089;BME280;7120;52.890;6.040;2023-04-25T11:02:30;101435.09;;;12.28;59.41
14089;BME280;7120;52.890;6.040;2023-04-25T11:04:56;101446.56;;;11.07;62.94
14089;BME280;7120;52.890;6.040;2023-04-25T11:10:05;101441.09;;;12.63;64.20
14089;BME280;7120;52.890;6.040;2023-04-25T11:12:31;101447.22;;;13.48;53.68
14089;BME280;7120;52.890;6.040;2023-04-25T11:15:01;101441.19;;;14.32;46.92
14089;BME280;7120;52.890;6.040;2023-04-25T11:17:27;101437.00;;;13.76;50.56
14089;BME280;7120;52.890;6.040;2023-04-25T11:19:54;101448.13;;;13.57;54.20
14089;BME280;7120;52.890;6.040;2023-04-25T11:22:21;101451.13;;;14.41;53.58
14089;BME280;7120;52.890;6.040;2023-04-25T11:24:46;101459.19;;;15.53;48.13
14089;BME280;7120;52.890;6.040;2023-04-25T11:27:12;101454.94;;;15.07;46.56
14089;BME280;7120;52.890;6.040;2023-04-25T11:29:37;101471.09;;;14.69;48.49
14089;BME280;7120;52.890;6.040;2023-04-25T11:32:03;101466.97;;;12.43;57.05
14089;BME280;7120;52.890;6.040;2023-04-25T11:34:29;101467.56;;;10.88;68.93
14089;BME280;7120;52.890;6.040;2023-04-25T11:36:58;101471.09;;;9.76;71.16
14089;BME280;7120;52.890;6.040;2023-04-25T11:39:25;101474.03;;;9.84;74.50
14089;BME280;7120;52.890;6.040;2023-04-25T11:41:51;101472.59;;;10.76;69.26
14089;BME280;7120;52.890;6.040;2023-04-25T11:44:17;101480.78;;;10.47;74.63
14089;BME280;7120;52.890;6.040;2023-04-25T11:46:43;101490.69;;;10.37;74.79
14089;BME280;7120;52.890;6.040;2023-04-25T11:49:09;101481.63;;;9.98;74.46
14089;BME280;7120;52.890;6.040;2023-04-25T11:51:41;101501.94;;;10.31;75.40
14089;BME280;7120;52.890;6.040;2023-04-25T11:54:06;101508.44;;;10.74;70.57
14089;BME280;7120;52.890;6.040;2023-04-25T11:56:32;101514.59;;;10.56;68.29
14089;BME280;7120;52.890;6.040;2023-04-25T12:01:34;101509.91;;;10.22;66.95
14089;BME280;7120;52.890;6.040;2023-04-25T12:04:14;101513.13;;;10.34;67.75
14089;BME280;7120;52.890;6.040;2023-04-25T12:06:41;101503.47;;;10.47;67.36
14089;BME280;7120;52.890;6.040;2023-04-25T12:09:08;101512.00;;;10.75;65.22
14089;BME280;7120;52.890;6.040;2023-04-25T12:14:10;101509.16;;;11.43;61.60
14089;BME280;7120;52.890;6.040;2023-04-25T12:16:46;101510.00;;;12.05;61.51
14089;BME280;7120;52.890;6.040;2023-04-25T12:19:19;101511.19;;;14.03;58.97
14089;BME280;7120;52.890;6.040;2023-04-25T12:21:45;101512.06;;;14.93;53.33
14089;BME280;7120;52.890;6.040;2023-04-25T12:24:17;101510.28;;;15.20;52.73
14089;BME280;7120;52.890;6.040;2023-04-25T12:26:58;101507.28;;;13.08;55.19
14089;BME280;7120;52.890;6.040;2023-04-25T12:29:26;101512.97;;;12.46;65.03
14089;BME280;7120;52.890;6.040;2023-04-25T12:31:52;101509.47;;;11.60;71.20
14089;BME280;7120;52.890;6.040;2023-04-25T12:34:18;101498.16;;;10.95;66.45
14089;BME280;7120;52.890;6.040;2023-04-25T12:36:44;101514.31;;;10.91;71.32
14089;BME280;7120;52.890;6.040;2023-04-25T12:41:41;101513.47;;;10.17;71.99
14089;BME280;7120;52.890;6.040;2023-04-25T12:44:06;101509.78;;;10.77;67.52
14089;BME280;7120;52.890;6.040;2023-04-25T12:46:32;101511.72;;;11.05;66.46
14089;BME280;7120;52.890;6.040;2023-04-25T12:48:57;101511.84;;;10.61;62.99
14089;BME280;7120;52.890;6.040;2023-04-25T12:51:22;101507.25;;;10.85;60.19
14089;BME280;7120;52.890;6.040;2023-04-25T12:53:50;101508.59;;;11.89;59.13
14089;BME280;7120;52.890;6.040;2023-04-25T12:56:16;101505.97;;;11.78;59.93
14089;BME280;7120;52.890;6.040;2023-04-25T12:58:41;101507.72;;;12.82;53.59
14089;BME280;7120;52.890;6.040;2023-04-25T13:01:08;101513.66;;;12.57;58.87
14089;BME280;7120;52.890;6.040;2023-04-25T13:03:34;101497.81;;;12.35;55.41
14089;BME280;7120;52.890;6.040;2023-04-25T13:05:59;101512.78;;;11.33;54.98
14089;BME280;7120;52.890;6.040;2023-04-25T13:08:25;101513.00;;;10.84;54.58
14089;BME280;7120;52.890;6.040;2023-04-25T13:10:51;101528.06;;;9.98;62.39
14089;BME280;7120;52.890;6.040;2023-04-25T13:13:16;101541.41;;;9.45;69.70
14089;BME280;7120;52.890;6.040;2023-04-25T13:15:42;101531.84;;;9.37;70.69
14089;BME280;7120;52.890;6.040;2023-04-25T13:18:07;101536.78;;;9.30;69.37
14089;BME280;7120;52.890;6.040;2023-04-25T13:20:33;101535.31;;;9.63;67.74